createdAt,value
2023-01-15T00:01:39.936Z,96278.84
2023-01-15T00:04:41.655Z,96256.41
2023-01-15T00:07:44.163Z,96270.09
2023-01-15T00:10:45.851Z,96247.72
2023-01-15T00:13:47.990Z,96235.91
2023-01-15T00:16:53.338Z,96252.06
2023-01-15T00:19:54.918Z,96240.22
2023-01-15T00:22:56.483Z,96247.84
2023-01-15T00:26:16.639Z,96230.00
2023-01-15T00:29:19.167Z,96223.34
2023-01-15T00:32:20.773Z,96221.34
2023-01-15T00:35:23.413Z,96218.38
2023-01-15T00:38:24.945Z,96233.69
2023-01-15T00:41:26.538Z,96234.94
2023-01-15T00:44:28.182Z,96195.28
2023-01-15T00:47:29.729Z,96218.00
2023-01-15T00:50:31.240Z,96212.97
2023-01-15T00:53:33.235Z,96219.06
2023-01-15T00:56:35.361Z,96205.66
2023-01-15T00:59:36.976Z,96186.91
2023-01-15T01:02:38.688Z,96177.38
2023-01-15T01:05:42.086Z,96204.84
2023-01-15T01:08:46.118Z,96208.09
2023-01-15T01:11:49.253Z,96194.03
2023-01-15T01:14:50.792Z,96201.16
2023-01-15T01:17:52.381Z,96192.38
2023-01-15T01:20:54.100Z,96175.06
2023-01-15T01:23:57.775Z,96184.63
2023-01-15T01:26:59.293Z,96213.31
2023-01-15T01:30:01.002Z,96177.00
2023-01-15T01:33:02.574Z,96169.66
2023-01-15T01:36:04.489Z,96204.25
2023-01-15T01:39:08.206Z,96179.59
2023-01-15T01:42:13.449Z,96179.97
2023-01-15T01:45:32.625Z,96179.56
2023-01-15T01:48:34.453Z,96156.59
2023-01-15T01:51:40.986Z,96145.94
2023-01-15T01:54:46.344Z,96177.69
2023-01-15T01:57:51.772Z,96143.38
2023-01-15T02:00:53.507Z,96151.69
2023-01-15T02:03:55.439Z,96147.41
2023-01-15T02:07:00.616Z,96157.66
2023-01-15T02:10:02.181Z,96179.06
2023-01-15T02:13:19.979Z,96172.31
2023-01-15T02:16:35.541Z,96141.38
2023-01-15T02:20:02.005Z,96148.69
2023-01-15T02:23:35.731Z,96133.06
2023-01-15T02:27:02.445Z,96153.47
2023-01-15T02:30:16.548Z,96136.00
2023-01-15T02:33:37.383Z,96145.63
2023-01-15T02:36:45.086Z,96136.19
2023-01-15T02:39:57.799Z,96118.22
2023-01-15T02:43:00.647Z,96119.84
2023-01-15T02:46:05.223Z,96112.88
2023-01-15T02:49:09.231Z,96109.00
2023-01-15T02:52:20.274Z,96117.72
2023-01-15T02:55:31.261Z,96118.75
2023-01-15T02:58:37.672Z,96117.72
2023-01-15T03:01:55.999Z,96121.81
2023-01-15T03:05:05.816Z,96117.59
2023-01-15T03:08:09.137Z,96113.31
2023-01-15T03:11:15.834Z,96116.19
2023-01-15T03:14:32.832Z,96105.50
2023-01-15T03:17:53.835Z,96125.22
2023-01-15T03:21:02.297Z,96133.00
2023-01-15T03:24:06.307Z,96120.41
2023-01-15T03:27:08.289Z,96123.22
2023-01-15T03:30:17.402Z,96117.72
2023-01-15T03:33:19.613Z,96114.06
2023-01-15T03:36:21.175Z,96108.78
2023-01-15T03:39:24.447Z,96114.69
2023-01-15T03:43:16.757Z,96112.66
2023-01-15T03:46:27.249Z,96092.56
2023-01-15T03:50:18.779Z,96099.06
2023-01-15T03:53:27.055Z,96099.50
2023-01-15T03:56:56.920Z,96060.69
2023-01-15T04:00:09.046Z,96080.38
2023-01-15T04:03:19.758Z,96071.84
2023-01-15T04:06:25.091Z,96085.66
2023-01-15T04:09:27.271Z,96081.38
2023-01-15T04:12:33.976Z,96065.28
2023-01-15T04:15:37.023Z,96074.28
2023-01-15T04:18:38.645Z,96068.56
2023-01-15T04:21:40.176Z,96092.34
2023-01-15T04:24:41.825Z,96076.28
2023-01-15T04:27:43.395Z,96062.47
2023-01-15T04:30:45.206Z,96066.34
2023-01-15T04:33:46.858Z,96056.38
2023-01-15T04:36:48.432Z,96068.56
2023-01-15T04:39:50.024Z,96054.75
2023-01-15T04:43:10.318Z,96043.59
2023-01-15T04:46:12.166Z,96064.31
2023-01-15T04:49:16.847Z,96084.41
2023-01-15T04:52:18.376Z,96056.78
2023-01-15T04:55:19.871Z,96066.75
2023-01-15T04:58:21.424Z,96041.75
2023-01-15T05:01:23.093Z,96058.00
2023-01-15T05:04:25.003Z,96062.25
2023-01-15T05:07:26.605Z,96062.91
2023-01-15T05:10:28.208Z,96056.59
2023-01-15T05:13:32.264Z,96052.75
2023-01-15T05:16:35.185Z,96064.94
2023-01-15T05:19:36.765Z,96086.47
2023-01-15T05:22:38.293Z,96054.97
2023-01-15T05:25:39.852Z,96048.28
2023-01-15T05:28:41.441Z,96058.44
2023-01-15T05:31:45.078Z,96048.28
2023-01-15T05:34:46.911Z,96059.44
2023-01-15T05:37:48.445Z,96043.78
2023-01-15T05:40:50.054Z,96061.66
2023-01-15T05:43:52.247Z,96032.34
2023-01-15T05:46:58.266Z,96056.97
2023-01-15T05:49:59.820Z,96027.44
2023-01-15T05:53:01.413Z,96048.19
2023-01-15T05:56:03.437Z,96036.16
2023-01-15T05:59:06.535Z,96045.53
2023-01-15T06:02:08.074Z,96049.59
2023-01-15T06:05:09.940Z,96029.47
2023-01-15T06:08:11.503Z,96048.13
2023-01-15T06:11:13.628Z,96054.25
2023-01-15T06:14:15.582Z,96039.84
2023-01-15T06:17:35.461Z,96048.84
2023-01-15T06:20:38.634Z,96077.13
2023-01-15T06:23:42.310Z,96056.19
2023-01-15T06:26:43.926Z,96047.84
2023-01-15T06:29:45.517Z,96058.44
2023-01-15T06:32:47.251Z,96048.66
2023-01-15T06:35:48.802Z,96046.84
2023-01-15T06:38:50.675Z,96046.41
2023-01-15T06:42:30.439Z,96088.63
2023-01-15T06:45:57.036Z,96057.53
2023-01-15T06:48:58.687Z,96063.66
2023-01-15T06:52:00.648Z,96091.47
2023-01-15T06:55:02.348Z,96095.28
2023-01-15T06:58:04.232Z,96096.41
2023-01-15T07:01:11.018Z,96099.88
2023-01-15T07:04:13.021Z,96102.47
2023-01-15T07:07:20.096Z,96127.00
2023-01-15T07:10:21.713Z,96112.03
2023-01-15T07:13:23.181Z,96118.91
2023-01-15T07:16:30.552Z,96108.09
2023-01-15T07:19:32.153Z,96134.03
2023-01-15T07:22:33.912Z,96132.63
2023-01-15T07:25:35.571Z,96157.59
2023-01-15T07:28:37.204Z,96184.53
2023-01-15T07:31:38.933Z,96214.81
2023-01-15T07:34:40.595Z,96232.47
2023-01-15T07:37:44.048Z,96231.00
2023-01-15T07:41:05.550Z,96257.09
2023-01-15T07:44:29.156Z,96267.13
2023-01-15T07:47:49.307Z,96289.19
2023-01-15T07:50:50.798Z,96290.66
2023-01-15T07:53:52.341Z,96305.16
2023-01-15T07:56:54.039Z,96311.78
2023-01-15T07:59:55.887Z,96310.88
2023-01-15T08:02:57.409Z,96308.69
2023-01-15T08:05:58.983Z,96329.72
2023-01-15T08:09:00.494Z,96319.00
2023-01-15T08:12:22.220Z,96326.56
2023-01-15T08:15:23.754Z,96330.16
2023-01-15T08:18:25.339Z,96336.50
2023-01-15T08:21:26.844Z,96354.25
2023-01-15T08:24:28.683Z,96365.56
2023-01-15T08:27:32.685Z,96367.75
2023-01-15T08:30:34.956Z,96367.59
2023-01-15T08:33:36.586Z,96368.06
2023-01-15T08:36:38.125Z,96361.06
2023-01-15T08:39:39.727Z,96355.81
2023-01-15T08:42:41.478Z,96376.69
2023-01-15T08:45:43.145Z,96397.03
2023-01-15T08:48:44.844Z,96402.44
2023-01-15T08:51:49.908Z,96427.53
2023-01-15T08:54:51.527Z,96450.44
2023-01-15T08:57:53.100Z,96443.31
2023-01-15T09:00:54.686Z,96456.25
2023-01-15T09:03:56.281Z,96452.47
2023-01-15T09:06:58.734Z,96459.66
2023-01-15T09:10:00.273Z,96464.75
2023-01-15T09:13:02.836Z,96463.59
2023-01-15T09:16:06.109Z,96462.28
2023-01-15T09:19:07.843Z,96477.06
2023-01-15T09:22:09.394Z,96469.84
2023-01-15T09:25:11.094Z,96478.53
2023-01-15T09:28:12.685Z,96495.53
2023-01-15T09:31:14.246Z,96498.19
2023-01-15T09:34:15.898Z,96489.66
2023-01-15T09:37:17.531Z,96499.34
2023-01-15T09:40:49.973Z,96510.94
2023-01-15T09:44:04.955Z,96520.78
2023-01-15T09:47:17.003Z,96528.31
2023-01-15T09:50:27.204Z,96536.03
2023-01-15T09:54:05.299Z,96551.06
2023-01-15T09:57:12.403Z,96548.63
2023-01-15T10:00:21.246Z,96545.34
2023-01-15T10:03:45.142Z,96551.22
2023-01-15T10:07:00.521Z,96555.97
2023-01-15T10:10:07.470Z,96564.44
2023-01-15T10:13:27.553Z,96576.88
2023-01-15T10:16:33.902Z,96570.03
2023-01-15T10:19:44.427Z,96584.22
2023-01-15T10:23:25.065Z,96576.81
2023-01-15T10:26:32.856Z,96575.72
2023-01-15T10:29:50.684Z,96589.53
2023-01-15T10:33:03.164Z,96591.78
2023-01-15T10:36:10.409Z,96604.19
2023-01-15T10:39:21.225Z,96623.78
2023-01-15T10:42:44.622Z,96597.63
2023-01-15T10:46:12.565Z,96604.00
2023-01-15T10:49:18.687Z,96615.50
2023-01-15T10:52:34.893Z,96621.84
2023-01-15T10:55:42.473Z,96624.78
2023-01-15T10:58:55.122Z,96651.94
2023-01-15T11:02:07.953Z,96638.97
2023-01-15T11:05:21.545Z,96631.50
2023-01-15T11:12:24.437Z,96632.81
2023-01-15T11:15:45.715Z,96644.44
2023-01-15T11:19:09.483Z,96640.84
2023-01-15T11:22:18.102Z,96650.72
2023-01-15T11:25:31.952Z,96646.78
2023-01-15T11:28:40.032Z,96641.56
2023-01-15T11:31:42.222Z,96662.50
2023-01-15T11:34:53.273Z,96655.84
2023-01-15T11:38:06.259Z,96665.50
2023-01-15T11:41:22.035Z,96670.44
2023-01-15T11:44:42.435Z,96657.63
2023-01-15T11:48:12.848Z,96666.81
2023-01-15T11:51:16.715Z,96668.47
2023-01-15T11:54:19.024Z,96659.63
2023-01-15T11:57:30.356Z,96662.72
2023-01-15T12:00:38.552Z,96656.66
2023-01-15T12:03:41.045Z,96653.34
2023-01-15T12:06:42.770Z,96646.66
2023-01-15T12:10:41.719Z,96665.94
2023-01-15T12:14:11.923Z,96662.50
2023-01-15T12:17:28.601Z,96677.72
2023-01-15T12:20:52.913Z,96684.09
2023-01-15T12:24:13.955Z,96678.84
2023-01-15T12:27:39.701Z,96678.84
2023-01-15T12:31:00.484Z,96680.94
2023-01-15T12:34:22.928Z,96688.81
2023-01-15T12:37:32.697Z,96692.22
2023-01-15T12:40:49.428Z,96698.75
2023-01-15T12:44:15.015Z,96690.25
2023-01-15T12:47:22.543Z,96670.22
2023-01-15T12:50:32.673Z,96688.28
2023-01-15T12:53:53.171Z,96700.59
2023-01-15T12:57:09.802Z,96708.03
2023-01-15T13:00:19.933Z,96710.53
2023-01-15T13:03:33.789Z,96705.34
2023-01-15T13:06:40.460Z,96715.88
2023-01-15T13:09:52.662Z,96710.66
2023-01-15T13:12:59.485Z,96715.88
2023-01-15T13:16:35.719Z,96713.41
2023-01-15T13:19:40.401Z,96727.69
2023-01-15T13:22:52.388Z,96737.38
2023-01-15T13:26:05.860Z,96752.34
2023-01-15T13:29:31.450Z,96743.38
2023-01-15T13:32:39.460Z,96748.22
2023-01-15T13:35:51.642Z,96749.31
2023-01-15T13:38:59.183Z,96778.50
2023-01-15T13:42:19.977Z,96759.59
2023-01-15T13:45:30.664Z,96769.81
2023-01-15T13:48:34.620Z,96781.91
2023-01-15T13:51:39.094Z,96781.22
2023-01-15T13:54:42.337Z,96770.56
2023-01-15T13:57:44.748Z,96783.97
2023-01-15T14:00:47.295Z,96785.72
2023-01-15T14:04:01.213Z,96796.88
2023-01-15T14:07:02.911Z,96794.91
2023-01-15T14:10:25.827Z,96794.91
2023-01-15T14:13:46.642Z,96792.78
2023-01-15T14:17:05.354Z,96794.22
2023-01-15T14:20:37.374Z,96791.09
2023-01-15T14:23:53.633Z,96792.38
2023-01-15T14:27:08.671Z,96785.84
2023-01-15T14:30:10.389Z,96793.81
2023-01-15T14:33:24.928Z,96790.69
2023-01-15T14:36:33.158Z,96799.56
2023-01-15T14:39:48.994Z,96797.16
2023-01-15T14:43:04.833Z,96804.72
2023-01-15T14:46:26.333Z,96802.38
2023-01-15T14:49:42.267Z,96787.00
2023-01-15T14:52:45.589Z,96789.22
2023-01-15T14:55:51.877Z,96794.47
2023-01-15T14:59:20.045Z,96789.41
2023-01-15T15:02:31.622Z,96791.84
2023-01-15T15:05:34.490Z,96809.84
2023-01-15T15:08:36.634Z,96797.00
2023-01-15T15:12:06.562Z,96806.94
2023-01-15T15:15:20.107Z,96809.38
2023-01-15T15:18:27.987Z,96790.53
2023-01-15T15:21:34.023Z,96796.72
2023-01-15T15:24:37.265Z,96803.50
2023-01-15T15:27:38.917Z,96809.53
2023-01-15T15:30:44.965Z,96801.81
2023-01-15T15:33:46.739Z,96803.75
2023-01-15T15:36:48.510Z,96801.97
2023-01-15T15:40:14.875Z,96802.72
2023-01-15T15:43:45.397Z,96803.69
2023-01-15T15:47:09.101Z,96791.34
2023-01-15T15:50:26.419Z,96785.63
2023-01-15T15:53:27.930Z,96794.84
2023-01-15T15:56:31.075Z,96783.22
2023-01-15T15:59:45.408Z,96773.88
2023-01-15T16:02:47.425Z,96777.47
2023-01-15T16:06:02.074Z,96776.66
2023-01-15T16:09:09.746Z,96784.50
2023-01-15T16:12:14.183Z,96759.59
2023-01-15T16:15:21.630Z,96752.47
2023-01-15T16:18:51.857Z,96748.16
2023-01-15T16:21:53.994Z,96732.69
2023-01-15T16:24:57.692Z,96744.00
2023-01-15T16:28:01.026Z,96728.59
2023-01-15T16:31:02.957Z,96728.22
2023-01-15T16:34:05.357Z,96715.09
2023-01-15T16:37:24.599Z,96717.63
2023-01-15T16:40:37.133Z,96727.28
2023-01-15T16:44:03.107Z,96712.53
2023-01-15T16:47:07.770Z,96716.94
2023-01-15T16:50:37.923Z,96702.22
2023-01-15T16:53:41.091Z,96709.53
2023-01-15T16:56:42.587Z,96702.59
2023-01-15T16:59:44.127Z,96707.81
2023-01-15T17:02:46.512Z,96707.81
2023-01-15T17:05:54.836Z,96698.72
2023-01-15T17:08:58.817Z,96693.50
2023-01-15T17:12:06.379Z,96702.06
2023-01-15T17:15:13.995Z,96697.75
2023-01-15T17:18:21.731Z,96705.59
2023-01-15T17:21:28.665Z,96713.66
2023-01-15T17:24:30.304Z,96708.06
2023-01-15T17:27:31.922Z,96697.59
2023-01-15T17:30:34.593Z,96701.94
2023-01-15T17:33:36.236Z,96696.88
2023-01-15T17:36:37.856Z,96705.06
2023-01-15T17:39:39.464Z,96706.13
2023-01-15T17:42:41.280Z,96711.19
2023-01-15T17:45:43.366Z,96706.78
2023-01-15T17:48:45.364Z,96685.94
2023-01-15T17:51:46.892Z,96695.06
2023-01-15T17:55:06.961Z,96692.69
2023-01-15T17:58:30.653Z,96690.72
2023-01-15T18:02:05.872Z,96692.88
2023-01-15T18:05:30.593Z,96679.66
2023-01-15T18:08:33.377Z,96682.38
2023-01-15T18:11:35.588Z,96677.41
2023-01-15T18:14:37.240Z,96673.91
2023-01-15T18:17:38.958Z,96659.50
2023-01-15T18:20:40.649Z,96673.97
2023-01-15T18:23:42.296Z,96674.94
2023-01-15T18:26:45.015Z,96675.69
2023-01-15T18:29:46.593Z,96658.53
2023-01-15T18:32:48.767Z,96666.94
2023-01-15T18:35:50.414Z,96657.91
2023-01-15T18:38:52.063Z,96668.38
2023-01-15T18:41:53.769Z,96673.34
2023-01-15T18:45:13.813Z,96664.63
2023-01-15T18:48:15.316Z,96660.88
2023-01-15T18:51:16.914Z,96664.03
2023-01-15T18:54:18.489Z,96655.53
2023-01-15T18:57:21.169Z,96653.06
2023-01-15T19:00:24.905Z,96652.06
2023-01-15T19:03:28.164Z,96639.13
2023-01-15T19:06:29.968Z,96621.72
2023-01-15T19:09:31.863Z,96625.03
2023-01-15T19:12:35.164Z,96625.44
2023-01-15T19:15:55.431Z,96610.13
2023-01-15T19:18:57.151Z,96619.34
2023-01-15T19:22:17.672Z,96621.72
2023-01-15T19:25:20.435Z,96609.69
2023-01-15T19:28:22.190Z,96615.31
2023-01-15T19:31:37.001Z,96601.84
2023-01-15T19:34:39.172Z,96595.75
2023-01-15T19:37:41.652Z,96589.47
2023-01-15T19:40:43.501Z,96593.88
2023-01-15T19:44:03.576Z,96582.94
2023-01-15T19:47:23.936Z,96574.72
2023-01-15T19:50:39.977Z,96569.88
2023-01-15T19:53:43.009Z,96569.13
2023-01-15T19:56:44.654Z,96563.19
2023-01-15T19:59:49.689Z,96556.34
2023-01-15T20:02:51.537Z,96551.75
2023-01-15T20:05:53.138Z,96540.41
2023-01-15T20:08:55.303Z,96527.75
2023-01-15T20:12:15.809Z,96521.00
2023-01-15T20:15:17.952Z,96530.81
2023-01-15T20:18:22.987Z,96529.78
2023-01-15T20:21:27.684Z,96514.09
2023-01-15T20:24:29.245Z,96519.03
2023-01-15T20:27:32.459Z,96516.63
2023-01-15T20:30:34.116Z,96500.50
2023-01-15T20:33:35.795Z,96500.44
2023-01-15T20:36:37.267Z,96504.94
2023-01-15T20:39:39.161Z,96491.38
2023-01-15T20:42:59.322Z,96489.06
2023-01-15T20:46:13.474Z,96483.50
2023-01-15T20:49:32.306Z,96479.31
2023-01-15T20:52:33.856Z,96456.81
2023-01-15T20:55:53.923Z,96441.41
2023-01-15T20:58:58.424Z,96445.03
2023-01-15T21:02:00.081Z,96456.09
2023-01-15T21:05:01.671Z,96433.78
2023-01-15T21:08:04.203Z,96422.94
2023-01-15T21:11:05.839Z,96421.78
2023-01-15T21:14:07.386Z,96426.84
2023-01-15T21:17:09.547Z,96427.50
2023-01-15T21:20:13.578Z,96403.03
2023-01-15T21:23:15.074Z,96408.50
2023-01-15T21:26:16.771Z,96396.31
2023-01-15T21:29:18.516Z,96390.28
2023-01-15T21:32:20.560Z,96396.53
2023-01-15T21:35:22.134Z,96392.28
2023-01-15T21:38:23.672Z,96396.22
2023-01-15T21:41:46.142Z,96377.09
2023-01-15T21:44:47.700Z,96379.72
2023-01-15T21:47:49.338Z,96365.47
2023-01-15T21:50:50.936Z,96358.13
2023-01-15T21:53:52.511Z,96354.19
2023-01-15T21:56:54.936Z,96341.56
2023-01-15T21:59:56.586Z,96330.59
2023-01-15T22:02:58.587Z,96337.47
2023-01-15T22:06:04.939Z,96332.88
2023-01-15T22:09:06.524Z,96332.75
2023-01-15T22:12:08.059Z,96322.75
2023-01-15T22:15:11.144Z,96301.78
2023-01-15T22:18:12.833Z,96303.44
2023-01-15T22:21:15.392Z,96293.25
2023-01-15T22:24:19.148Z,96311.44
2023-01-15T22:27:20.818Z,96297.38
2023-01-15T22:30:22.578Z,96288.53
2023-01-15T22:33:24.184Z,96269.38
2023-01-15T22:36:27.114Z,96271.84
2023-01-15T22:39:29.051Z,96267.59
2023-01-15T22:42:32.950Z,96263.16
2023-01-15T22:45:34.633Z,96265.13
2023-01-15T22:48:36.311Z,96263.66
2023-01-15T22:51:37.867Z,96255.31
2023-01-15T22:54:39.524Z,96256.13
2023-01-15T22:57:41.088Z,96251.00
2023-01-15T23:00:42.600Z,96228.44
2023-01-15T23:03:44.293Z,96236.63
2023-01-15T23:06:46.322Z,96227.59
2023-01-15T23:09:47.942Z,96217.25
2023-01-15T23:12:49.460Z,96228.75
2023-01-15T23:15:58.361Z,96204.31
2023-01-15T23:18:59.979Z,96202.34
2023-01-15T23:22:01.592Z,96197.09
2023-01-15T23:25:03.960Z,96204.00
2023-01-15T23:28:05.563Z,96202.53
2023-01-15T23:31:07.556Z,96195.00
2023-01-15T23:34:10.572Z,96191.88
2023-01-15T23:37:12.048Z,96193.19
2023-01-15T23:40:13.700Z,96177.16
2023-01-15T23:43:34.497Z,96163.78
2023-01-15T23:46:36.268Z,96180.56
2023-01-15T23:49:38.008Z,96157.78
2023-01-15T23:52:39.605Z,96153.03
2023-01-15T23:55:41.224Z,96150.06
2023-01-15T23:58:42.778Z,96147.78
